sensor_id;sensor_type;location;lat;lon;timestamp;P1;durP1;ratioP1;P2;durP2;ratioP2
31618;SDS011;18230;51.502;7.108;2024-02-26T00:04:42;3.05;;;1.45;;
31618;SDS011;18230;51.502;7.108;2024-02-26T00:09:43;6.40;;;1.92;;
31618;SDS011;18230;51.502;7.108;2024-02-26T00:14:44;3.88;;;1.80;;
31618;SDS011;18230;51.502;7.108;2024-02-26T00:19:46;5.38;;;1.80;;
31618;SDS011;18230;51.502;7.108;2024-02-26T00:24:46;6.97;;;1.95;;
31618;SDS011;18230;51.502;7.108;2024-02-26T00:29:47;5.15;;;2.33;;
31618;SDS011;18230;51.502;7.108;2024-02-26T00:34:47;4.70;;;2.30;;
31618;SDS011;18230;51.502;7.108;2024-02-26T00:39:48;4.53;;;2.17;;
31618;SDS011;18230;51.502;7.108;2024-02-26T00:44:49;5.45;;;2.70;;
31618;SDS011;18230;51.502;7.108;2024-02-26T00:49:49;6.18;;;2.20;;
31618;SDS011;18230;51.502;7.108;2024-02-26T00:54:50;3.20;;;2.08;;
31618;SDS011;18230;51.502;7.108;2024-02-26T00:59:51;4.30;;;2.33;;
31618;SDS011;18230;51.502;7.108;2024-02-26T01:04:51;4.78;;;2.28;;
31618;SDS011;18230;51.502;7.108;2024-02-26T01:09:52;4.40;;;1.90;;
31618;SDS011;18230;51.502;7.108;2024-02-26T01:14:53;5.55;;;2.35;;
31618;SDS011;18230;51.502;7.108;2024-02-26T01:19:53;3.45;;;1.95;;
31618;SDS011;18230;51.502;7.108;2024-02-26T01:24:54;4.15;;;2.00;;
31618;SDS011;18230;51.502;7.108;2024-02-26T01:29:56;4.88;;;2.10;;
31618;SDS011;18230;51.502;7.108;2024-02-26T01:34:57;6.88;;;2.20;;
31618;SDS011;18230;51.502;7.108;2024-02-26T01:39:58;4.57;;;1.83;;
31618;SDS011;18230;51.502;7.108;2024-02-26T01:44:59;5.57;;;1.90;;
31618;SDS011;18230;51.502;7.108;2024-02-26T01:49:59;2.88;;;1.52;;
31618;SDS011;18230;51.502;7.108;2024-02-26T01:55:00;5.45;;;1.98;;
31618;SDS011;18230;51.502;7.108;2024-02-26T02:00:01;4.32;;;2.00;;
31618;SDS011;18230;51.502;7.108;2024-02-26T02:05:05;3.17;;;2.08;;
31618;SDS011;18230;51.502;7.108;2024-02-26T02:10:07;3.53;;;1.70;;
31618;SDS011;18230;51.502;7.108;2024-02-26T02:15:08;3.88;;;2.05;;
31618;SDS011;18230;51.502;7.108;2024-02-26T02:20:09;3.92;;;1.85;;
31618;SDS011;18230;51.502;7.108;2024-02-26T02:25:15;4.68;;;1.88;;
31618;SDS011;18230;51.502;7.108;2024-02-26T02:30:16;3.75;;;1.88;;
31618;SDS011;18230;51.502;7.108;2024-02-26T02:35:17;3.20;;;2.08;;
31618;SDS011;18230;51.502;7.108;2024-02-26T02:40:17;2.58;;;1.77;;
31618;SDS011;18230;51.502;7.108;2024-02-26T02:45:18;2.72;;;1.45;;
31618;SDS011;18230;51.502;7.108;2024-02-26T02:50:18;3.75;;;2.00;;
31618;SDS011;18230;51.502;7.108;2024-02-26T02:55:19;6.18;;;1.65;;
31618;SDS011;18230;51.502;7.108;2024-02-26T03:00:20;3.45;;;1.38;;
31618;SDS011;18230;51.502;7.108;2024-02-26T03:05:22;2.95;;;1.58;;
31618;SDS011;18230;51.502;7.108;2024-02-26T03:10:23;4.32;;;2.17;;
31618;SDS011;18230;51.502;7.108;2024-02-26T03:15:24;2.83;;;1.48;;
31618;SDS011;18230;51.502;7.108;2024-02-26T03:20:24;4.30;;;2.00;;
31618;SDS011;18230;51.502;7.108;2024-02-26T03:25:25;2.80;;;1.48;;
31618;SDS011;18230;51.502;7.108;2024-02-26T03:30:25;2.80;;;1.40;;
31618;SDS011;18230;51.502;7.108;2024-02-26T03:35:26;6.85;;;1.58;;
31618;SDS011;18230;51.502;7.108;2024-02-26T03:40:27;3.72;;;1.33;;
31618;SDS011;18230;51.502;7.108;2024-02-26T03:45:27;3.58;;;1.80;;
31618;SDS011;18230;51.502;7.108;2024-02-26T03:50:28;2.45;;;1.55;;
31618;SDS011;18230;51.502;7.108;2024-02-26T03:55:28;3.80;;;1.85;;
31618;SDS011;18230;51.502;7.108;2024-02-26T04:00:29;5.05;;;2.13;;
31618;SDS011;18230;51.502;7.108;2024-02-26T04:05:30;3.92;;;1.77;;
31618;SDS011;18230;51.502;7.108;2024-02-26T04:10:30;5.57;;;2.15;;
31618;SDS011;18230;51.502;7.108;2024-02-26T04:15:31;2.80;;;2.08;;
31618;SDS011;18230;51.502;7.108;2024-02-26T04:20:32;3.63;;;2.05;;
31618;SDS011;18230;51.502;7.108;2024-02-26T04:25:33;5.15;;;2.20;;
31618;SDS011;18230;51.502;7.108;2024-02-26T04:30:34;3.75;;;1.77;;
31618;SDS011;18230;51.502;7.108;2024-02-26T04:35:34;4.97;;;2.20;;
31618;SDS011;18230;51.502;7.108;2024-02-26T04:40:35;6.13;;;2.17;;
31618;SDS011;18230;51.502;7.108;2024-02-26T04:45:35;6.05;;;3.13;;
31618;SDS011;18230;51.502;7.108;2024-02-26T04:50:36;3.47;;;1.98;;
31618;SDS011;18230;51.502;7.108;2024-02-26T04:55:37;6.40;;;2.72;;
31618;SDS011;18230;51.502;7.108;2024-02-26T05:00:37;4.53;;;2.47;;
31618;SDS011;18230;51.502;7.108;2024-02-26T05:05:38;3.70;;;1.92;;
31618;SDS011;18230;51.502;7.108;2024-02-26T05:10:45;5.15;;;2.40;;
31618;SDS011;18230;51.502;7.108;2024-02-26T05:15:46;5.28;;;1.88;;
31618;SDS011;18230;51.502;7.108;2024-02-26T05:20:49;5.40;;;2.47;;
31618;SDS011;18230;51.502;7.108;2024-02-26T05:25:49;6.10;;;2.50;;
31618;SDS011;18230;51.502;7.108;2024-02-26T05:30:50;3.30;;;1.95;;
31618;SDS011;18230;51.502;7.108;2024-02-26T05:35:51;4.90;;;2.55;;
31618;SDS011;18230;51.502;7.108;2024-02-26T05:40:51;7.70;;;2.72;;
31618;SDS011;18230;51.502;7.108;2024-02-26T05:45:52;7.53;;;2.95;;
31618;SDS011;18230;51.502;7.108;2024-02-26T05:50:53;9.23;;;2.63;;
31618;SDS011;18230;51.502;7.108;2024-02-26T05:55:53;8.73;;;3.25;;
31618;SDS011;18230;51.502;7.108;2024-02-26T06:00:54;5.70;;;2.72;;
31618;SDS011;18230;51.502;7.108;2024-02-26T06:05:55;7.82;;;2.90;;
31618;SDS011;18230;51.502;7.108;2024-02-26T06:10:55;7.45;;;2.90;;
31618;SDS011;18230;51.502;7.108;2024-02-26T06:15:56;6.72;;;2.55;;
31618;SDS011;18230;51.502;7.108;2024-02-26T06:20:57;4.70;;;2.50;;
31618;SDS011;18230;51.502;7.108;2024-02-26T06:25:57;4.18;;;2.47;;
31618;SDS011;18230;51.502;7.108;2024-02-26T06:30:58;6.30;;;2.67;;
31618;SDS011;18230;51.502;7.108;2024-02-26T06:35:59;5.50;;;2.53;;
31618;SDS011;18230;51.502;7.108;2024-02-26T06:40:59;4.38;;;2.47;;
31618;SDS011;18230;51.502;7.108;2024-02-26T06:46:01;5.22;;;2.50;;
31618;SDS011;18230;51.502;7.108;2024-02-26T06:51:02;3.38;;;2.08;;
31618;SDS011;18230;51.502;7.108;2024-02-26T06:56:03;5.45;;;2.60;;
31618;SDS011;18230;51.502;7.108;2024-02-26T07:01:04;5.03;;;2.83;;
31618;SDS011;18230;51.502;7.108;2024-02-26T07:06:05;3.08;;;2.45;;
31618;SDS011;18230;51.502;7.108;2024-02-26T07:11:07;6.10;;;3.20;;
31618;SDS011;18230;51.502;7.108;2024-02-26T07:16:09;6.75;;;2.90;;
31618;SDS011;18230;51.502;7.108;2024-02-26T07:21:11;7.38;;;3.05;;
31618;SDS011;18230;51.502;7.108;2024-02-26T07:26:12;4.30;;;2.72;;
31618;SDS011;18230;51.502;7.108;2024-02-26T07:31:13;5.85;;;3.05;;
31618;SDS011;18230;51.502;7.108;2024-02-26T07:36:13;7.22;;;3.72;;
31618;SDS011;18230;51.502;7.108;2024-02-26T07:41:14;4.93;;;2.60;;
31618;SDS011;18230;51.502;7.108;2024-02-26T07:46:15;5.13;;;3.30;;
31618;SDS011;18230;51.502;7.108;2024-02-26T07:51:15;5.95;;;3.17;;
31618;SDS011;18230;51.502;7.108;2024-02-26T07:56:17;8.65;;;3.05;;
31618;SDS011;18230;51.502;7.108;2024-02-26T08:01:18;5.32;;;2.70;;
31618;SDS011;18230;51.502;7.108;2024-02-26T08:06:18;7.25;;;3.33;;
31618;SDS011;18230;51.502;7.108;2024-02-26T08:11:19;6.55;;;3.60;;
31618;SDS011;18230;51.502;7.108;2024-02-26T08:16:19;7.38;;;3.33;;
31618;SDS011;18230;51.502;7.108;2024-02-26T08:21:20;6.55;;;3.38;;
31618;SDS011;18230;51.502;7.108;2024-02-26T08:26:21;6.05;;;3.05;;
31618;SDS011;18230;51.502;7.108;2024-02-26T08:31:23;7.05;;;3.75;;
31618;SDS011;18230;51.502;7.108;2024-02-26T08:36:24;5.07;;;3.25;;
31618;SDS011;18230;51.502;7.108;2024-02-26T08:41:25;8.68;;;3.75;;
31618;SDS011;18230;51.502;7.108;2024-02-26T08:46:26;6.07;;;3.60;;
31618;SDS011;18230;51.502;7.108;2024-02-26T08:51:26;8.07;;;3.53;;
31618;SDS011;18230;51.502;7.108;2024-02-26T08:56:27;7.78;;;3.50;;
31618;SDS011;18230;51.502;7.108;2024-02-26T09:01:27;7.97;;;3.35;;
31618;SDS011;18230;51.502;7.108;2024-02-26T09:06:29;8.80;;;3.33;;
31618;SDS011;18230;51.502;7.108;2024-02-26T09:11:29;10.07;;;3.50;;
31618;SDS011;18230;51.502;7.108;2024-02-26T09:16:30;9.18;;;3.80;;
31618;SDS011;18230;51.502;7.108;2024-02-26T09:21:31;7.85;;;4.55;;
31618;SDS011;18230;51.502;7.108;2024-02-26T09:26:32;9.00;;;4.63;;
31618;SDS011;18230;51.502;7.108;2024-02-26T09:31:32;9.60;;;4.75;;
31618;SDS011;18230;51.502;7.108;2024-02-26T09:36:34;10.10;;;4.45;;
31618;SDS011;18230;51.502;7.108;2024-02-26T09:41:35;7.47;;;4.15;;
31618;SDS011;18230;51.502;7.108;2024-02-26T09:46:35;7.90;;;4.22;;
31618;SDS011;18230;51.502;7.108;2024-02-26T09:51:37;11.43;;;3.85;;
31618;SDS011;18230;51.502;7.108;2024-02-26T09:56:39;8.45;;;3.58;;
31618;SDS011;18230;51.502;7.108;2024-02-26T10:01:44;8.93;;;4.10;;
31618;SDS011;18230;51.502;7.108;2024-02-26T10:06:45;10.55;;;4.32;;
31618;SDS011;18230;51.502;7.108;2024-02-26T10:11:47;7.72;;;3.72;;
31618;SDS011;18230;51.502;7.108;2024-02-26T10:16:49;10.80;;;3.85;;
31618;SDS011;18230;51.502;7.108;2024-02-26T10:21:52;7.57;;;3.53;;
31618;SDS011;18230;51.502;7.108;2024-02-26T10:27:00;6.30;;;3.70;;
31618;SDS011;18230;51.502;7.108;2024-02-26T10:32:02;11.27;;;3.63;;
31618;SDS011;18230;51.502;7.108;2024-02-26T10:37:04;5.57;;;3.50;;
31618;SDS011;18230;51.502;7.108;2024-02-26T10:42:05;4.72;;;3.38;;
31618;SDS011;18230;51.502;7.108;2024-02-26T10:47:12;6.57;;;3.17;;
31618;SDS011;18230;51.502;7.108;2024-02-26T10:52:13;6.65;;;4.28;;
31618;SDS011;18230;51.502;7.108;2024-02-26T10:57:15;6.75;;;3.92;;
31618;SDS011;18230;51.502;7.108;2024-02-26T11:02:17;7.03;;;4.15;;
31618;SDS011;18230;51.502;7.108;2024-02-26T11:07:19;7.38;;;3.85;;
31618;SDS011;18230;51.502;7.108;2024-02-26T11:12:20;6.00;;;3.70;;
31618;SDS011;18230;51.502;7.108;2024-02-26T11:17:22;10.02;;;4.43;;
31618;SDS011;18230;51.502;7.108;2024-02-26T11:22:31;5.32;;;3.75;;
31618;SDS011;18230;51.502;7.108;2024-02-26T11:27:35;7.38;;;4.63;;
31618;SDS011;18230;51.502;7.108;2024-02-26T11:32:43;6.60;;;3.88;;
31618;SDS011;18230;51.502;7.108;2024-02-26T11:37:51;8.63;;;4.60;;
31618;SDS011;18230;51.502;7.108;2024-02-26T11:42:54;7.20;;;4.50;;
31618;SDS011;18230;51.502;7.108;2024-02-26T11:47:57;8.88;;;5.50;;
31618;SDS011;18230;51.502;7.108;2024-02-26T11:58:31;9.13;;;5.25;;
31618;SDS011;18230;51.502;7.108;2024-02-26T12:03:31;12.40;;;5.50;;
31618;SDS011;18230;51.502;7.108;2024-02-26T12:08:34;11.93;;;6.53;;
31618;SDS011;18230;51.502;7.108;2024-02-26T12:13:35;11.15;;;6.13;;
31618;SDS011;18230;51.502;7.108;2024-02-26T12:18:35;19.05;;;11.05;;
31618;SDS011;18230;51.502;7.108;2024-02-26T12:23:36;11.43;;;6.13;;
31618;SDS011;18230;51.502;7.108;2024-02-26T12:28:37;11.43;;;6.88;;
31618;SDS011;18230;51.502;7.108;2024-02-26T12:33:37;15.40;;;6.68;;
31618;SDS011;18230;51.502;7.108;2024-02-26T12:38:38;11.32;;;6.88;;
31618;SDS011;18230;51.502;7.108;2024-02-26T12:43:39;10.13;;;6.50;;
31618;SDS011;18230;51.502;7.108;2024-02-26T12:48:39;9.18;;;5.82;;
31618;SDS011;18230;51.502;7.108;2024-02-26T12:53:47;13.27;;;6.10;;
31618;SDS011;18230;51.502;7.108;2024-02-26T12:58:50;11.20;;;5.95;;
31618;SDS011;18230;51.502;7.108;2024-02-26T13:03:52;9.80;;;5.70;;
31618;SDS011;18230;51.502;7.108;2024-02-26T13:08:57;7.80;;;5.05;;
31618;SDS011;18230;51.502;7.108;2024-02-26T13:14:01;8.40;;;5.30;;
31618;SDS011;18230;51.502;7.108;2024-02-26T13:19:09;8.65;;;4.93;;
31618;SDS011;18230;51.502;7.108;2024-02-26T13:24:12;10.23;;;5.30;;
31618;SDS011;18230;51.502;7.108;2024-02-26T13:29:16;7.18;;;4.75;;
31618;SDS011;18230;51.502;7.108;2024-02-26T13:34:24;10.43;;;4.50;;
31618;SDS011;18230;51.502;7.108;2024-02-26T13:39:27;9.90;;;4.00;;
31618;SDS011;18230;51.502;7.108;2024-02-26T13:44:28;9.50;;;4.22;;
31618;SDS011;18230;51.502;7.108;2024-02-26T13:49:28;6.18;;;4.35;;
31618;SDS011;18230;51.502;7.108;2024-02-26T13:54:29;9.00;;;4.20;;
31618;SDS011;18230;51.502;7.108;2024-02-26T13:59:30;6.85;;;3.95;;
31618;SDS011;18230;51.502;7.108;2024-02-26T14:04:30;6.25;;;3.63;;
31618;SDS011;18230;51.502;7.108;2024-02-26T14:09:31;8.02;;;5.00;;
31618;SDS011;18230;51.502;7.108;2024-02-26T14:14:32;6.38;;;3.58;;
31618;SDS011;18230;51.502;7.108;2024-02-26T14:19:36;4.80;;;3.47;;
31618;SDS011;18230;51.502;7.108;2024-02-26T14:24:39;4.55;;;3.50;;
31618;SDS011;18230;51.502;7.108;2024-02-26T14:29:40;8.48;;;4.20;;
31618;SDS011;18230;51.502;7.108;2024-02-26T14:34:41;7.15;;;4.30;;
31618;SDS011;18230;51.502;7.108;2024-02-26T14:39:42;8.60;;;4.75;;
31618;SDS011;18230;51.502;7.108;2024-02-26T14:44:43;6.30;;;4.03;;
31618;SDS011;18230;51.502;7.108;2024-02-26T14:49:44;5.88;;;3.85;;
31618;SDS011;18230;51.502;7.108;2024-02-26T14:54:48;7.38;;;4.05;;
31618;SDS011;18230;51.502;7.108;2024-02-26T14:59:50;5.47;;;3.83;;
31618;SDS011;18230;51.502;7.108;2024-02-26T15:04:51;6.53;;;3.72;;
31618;SDS011;18230;51.502;7.108;2024-02-26T15:09:51;7.93;;;3.40;;
31618;SDS011;18230;51.502;7.108;2024-02-26T15:14:57;5.43;;;3.35;;
31618;SDS011;18230;51.502;7.108;2024-02-26T15:19:57;8.25;;;2.70;;
31618;SDS011;18230;51.502;7.108;2024-02-26T15:24:59;8.40;;;2.65;;
31618;SDS011;18230;51.502;7.108;2024-02-26T15:30:00;6.63;;;3.15;;
31618;SDS011;18230;51.502;7.108;2024-02-26T15:35:01;5.03;;;2.67;;
31618;SDS011;18230;51.502;7.108;2024-02-26T15:40:01;4.53;;;3.10;;
31618;SDS011;18230;51.502;7.108;2024-02-26T15:45:03;5.30;;;3.45;;
31618;SDS011;18230;51.502;7.108;2024-02-26T15:50:05;4.28;;;2.72;;
31618;SDS011;18230;51.502;7.108;2024-02-26T15:55:05;5.28;;;2.92;;
31618;SDS011;18230;51.502;7.108;2024-02-26T16:00:06;4.70;;;3.28;;
31618;SDS011;18230;51.502;7.108;2024-02-26T16:05:10;5.18;;;3.08;;
31618;SDS011;18230;51.502;7.108;2024-02-26T16:10:12;7.13;;;3.03;;
31618;SDS011;18230;51.502;7.108;2024-02-26T16:15:13;4.32;;;2.80;;
31618;SDS011;18230;51.502;7.108;2024-02-26T16:20:20;5.72;;;3.50;;
31618;SDS011;18230;51.502;7.108;2024-02-26T16:25:24;6.07;;;3.10;;
31618;SDS011;18230;51.502;7.108;2024-02-26T16:30:25;5.78;;;3.22;;
31618;SDS011;18230;51.502;7.108;2024-02-26T16:35:25;3.90;;;3.15;;
31618;SDS011;18230;51.502;7.108;2024-02-26T16:40:26;5.60;;;2.80;;
31618;SDS011;18230;51.502;7.108;2024-02-26T16:45:27;7.25;;;3.10;;
31618;SDS011;18230;51.502;7.108;2024-02-26T16:50:28;7.53;;;3.30;;
31618;SDS011;18230;51.502;7.108;2024-02-26T16:55:29;5.35;;;3.30;;
31618;SDS011;18230;51.502;7.108;2024-02-26T17:00:29;5.25;;;3.33;;
31618;SDS011;18230;51.502;7.108;2024-02-26T17:05:30;7.28;;;3.67;;
31618;SDS011;18230;51.502;7.108;2024-02-26T17:10:31;5.50;;;3.60;;
31618;SDS011;18230;51.502;7.108;2024-02-26T17:15:32;15.38;;;4.90;;
31618;SDS011;18230;51.502;7.108;2024-02-26T17:20:32;5.28;;;3.53;;
31618;SDS011;18230;51.502;7.108;2024-02-26T17:25:33;7.50;;;3.55;;
31618;SDS011;18230;51.502;7.108;2024-02-26T17:30:33;7.55;;;4.65;;
31618;SDS011;18230;51.502;7.108;2024-02-26T17:35:34;7.30;;;4.10;;
31618;SDS011;18230;51.502;7.108;2024-02-26T17:40:35;8.45;;;4.43;;
31618;SDS011;18230;51.502;7.108;2024-02-26T17:45:36;8.38;;;4.45;;
31618;SDS011;18230;51.502;7.108;2024-02-26T17:50:37;7.75;;;3.95;;
31618;SDS011;18230;51.502;7.108;2024-02-26T17:55:38;5.75;;;3.80;;
31618;SDS011;18230;51.502;7.108;2024-02-26T18:00:42;7.78;;;4.18;;
31618;SDS011;18230;51.502;7.108;2024-02-26T18:05:42;6.18;;;4.05;;
31618;SDS011;18230;51.502;7.108;2024-02-26T18:10:43;8.68;;;5.32;;
31618;SDS011;18230;51.502;7.108;2024-02-26T18:15:43;8.82;;;4.53;;
31618;SDS011;18230;51.502;7.108;2024-02-26T18:20:45;11.00;;;5.97;;
31618;SDS011;18230;51.502;7.108;2024-02-26T18:25:45;9.77;;;5.97;;
31618;SDS011;18230;51.502;7.108;2024-02-26T18:30:46;11.45;;;6.97;;
31618;SDS011;18230;51.502;7.108;2024-02-26T18:35:46;13.93;;;7.97;;
31618;SDS011;18230;51.502;7.108;2024-02-26T18:40:47;12.38;;;8.25;;
31618;SDS011;18230;51.502;7.108;2024-02-26T18:45:48;16.77;;;9.40;;
31618;SDS011;18230;51.502;7.108;2024-02-26T18:50:48;15.98;;;9.68;;
31618;SDS011;18230;51.502;7.108;2024-02-26T18:55:49;17.98;;;10.32;;
31618;SDS011;18230;51.502;7.108;2024-02-26T19:00:50;18.42;;;11.32;;
31618;SDS011;18230;51.502;7.108;2024-02-26T19:05:50;16.42;;;10.63;;
31618;SDS011;18230;51.502;7.108;2024-02-26T19:10:51;16.70;;;9.88;;
31618;SDS011;18230;51.502;7.108;2024-02-26T19:15:52;17.98;;;11.00;;
31618;SDS011;18230;51.502;7.108;2024-02-26T19:20:52;18.90;;;11.63;;
31618;SDS011;18230;51.502;7.108;2024-02-26T19:25:53;19.48;;;11.30;;
31618;SDS011;18230;51.502;7.108;2024-02-26T19:30:54;19.77;;;11.75;;
31618;SDS011;18230;51.502;7.108;2024-02-26T19:35:54;22.67;;;12.23;;
31618;SDS011;18230;51.502;7.108;2024-02-26T19:40:55;19.48;;;11.35;;
31618;SDS011;18230;51.502;7.108;2024-02-26T19:45:56;20.50;;;12.27;;
31618;SDS011;18230;51.502;7.108;2024-02-26T19:50:57;21.80;;;11.93;;
31618;SDS011;18230;51.502;7.108;2024-02-26T19:55:57;25.70;;;12.35;;
31618;SDS011;18230;51.502;7.108;2024-02-26T20:00:58;17.70;;;11.70;;
31618;SDS011;18230;51.502;7.108;2024-02-26T20:05:59;20.42;;;12.02;;
31618;SDS011;18230;51.502;7.108;2024-02-26T20:10:59;18.08;;;11.93;;
31618;SDS011;18230;51.502;7.108;2024-02-26T20:16:01;19.95;;;13.02;;
31618;SDS011;18230;51.502;7.108;2024-02-26T20:21:02;18.20;;;12.32;;
31618;SDS011;18230;51.502;7.108;2024-02-26T20:26:02;26.95;;;13.70;;
31618;SDS011;18230;51.502;7.108;2024-02-26T20:31:04;21.83;;;14.18;;
31618;SDS011;18230;51.502;7.108;2024-02-26T20:36:05;24.48;;;14.68;;
31618;SDS011;18230;51.502;7.108;2024-02-26T20:41:06;20.55;;;13.73;;
31618;SDS011;18230;51.502;7.108;2024-02-26T20:46:06;20.75;;;14.35;;
31618;SDS011;18230;51.502;7.108;2024-02-26T20:51:07;23.45;;;15.05;;
31618;SDS011;18230;51.502;7.108;2024-02-26T20:56:08;26.50;;;16.08;;
31618;SDS011;18230;51.502;7.108;2024-02-26T21:01:09;23.40;;;15.43;;
31618;SDS011;18230;51.502;7.108;2024-02-26T21:06:10;24.48;;;16.73;;
31618;SDS011;18230;51.502;7.108;2024-02-26T21:11:10;26.58;;;17.50;;
31618;SDS011;18230;51.502;7.108;2024-02-26T21:16:11;28.80;;;18.85;;
31618;SDS011;18230;51.502;7.108;2024-02-26T21:21:12;30.52;;;18.67;;
31618;SDS011;18230;51.502;7.108;2024-02-26T21:26:15;32.35;;;20.23;;
31618;SDS011;18230;51.502;7.108;2024-02-26T21:31:16;30.27;;;19.90;;
31618;SDS011;18230;51.502;7.108;2024-02-26T21:36:17;30.85;;;20.42;;
31618;SDS011;18230;51.502;7.108;2024-02-26T21:41:18;33.65;;;20.73;;
31618;SDS011;18230;51.502;7.108;2024-02-26T21:46:22;34.33;;;21.20;;
31618;SDS011;18230;51.502;7.108;2024-02-26T21:51:24;35.97;;;22.20;;
31618;SDS011;18230;51.502;7.108;2024-02-26T21:56:24;29.83;;;20.90;;
31618;SDS011;18230;51.502;7.108;2024-02-26T22:01:25;30.25;;;21.08;;
31618;SDS011;18230;51.502;7.108;2024-02-26T22:06:25;36.85;;;22.40;;
31618;SDS011;18230;51.502;7.108;2024-02-26T22:11:26;33.42;;;22.23;;
31618;SDS011;18230;51.502;7.108;2024-02-26T22:16:27;37.08;;;23.08;;
31618;SDS011;18230;51.502;7.108;2024-02-26T22:21:29;33.60;;;22.90;;
31618;SDS011;18230;51.502;7.108;2024-02-26T22:26:33;33.88;;;23.38;;
31618;SDS011;18230;51.502;7.108;2024-02-26T22:31:34;36.47;;;23.63;;
31618;SDS011;18230;51.502;7.108;2024-02-26T22:36:36;34.92;;;23.60;;
31618;SDS011;18230;51.502;7.108;2024-02-26T22:41:41;38.10;;;24.55;;
31618;SDS011;18230;51.502;7.108;2024-02-26T22:46:42;33.50;;;22.73;;
31618;SDS011;18230;51.502;7.108;2024-02-26T22:51:43;35.67;;;23.48;;
31618;SDS011;18230;51.502;7.108;2024-02-26T22:56:43;36.40;;;24.42;;
31618;SDS011;18230;51.502;7.108;2024-02-26T23:01:47;36.50;;;24.08;;
31618;SDS011;18230;51.502;7.108;2024-02-26T23:06:48;36.05;;;24.85;;
31618;SDS011;18230;51.502;7.108;2024-02-26T23:11:49;38.50;;;24.13;;
31618;SDS011;18230;51.502;7.108;2024-02-26T23:16:49;36.33;;;23.83;;
31618;SDS011;18230;51.502;7.108;2024-02-26T23:21:50;38.58;;;24.85;;
31618;SDS011;18230;51.502;7.108;2024-02-26T23:26:50;37.80;;;24.52;;
31618;SDS011;18230;51.502;7.108;2024-02-26T23:31:51;39.05;;;25.52;;
31618;SDS011;18230;51.502;7.108;2024-02-26T23:36:52;37.90;;;25.48;;
31618;SDS011;18230;51.502;7.108;2024-02-26T23:41:52;39.22;;;25.95;;
31618;SDS011;18230;51.502;7.108;2024-02-26T23:46:53;40.40;;;24.50;;
31618;SDS011;18230;51.502;7.108;2024-02-26T23:51:54;40.78;;;26.27;;
31618;SDS011;18230;51.502;7.108;2024-02-26T23:56:54;39.22;;;26.35;;
